Baltica — 9HA2607 — position and weather

sailwx.info

Track history (hours):
 
Tides and Currents Weather Stations Pressure Air Temp Water Temp Dewpoint Dewpoint Depression Visibility Wind Speed Wind Dir Waves Ship Positions

Baltica

Last reported at 2015-Aug-01 23:33 UTC. Time now 2015-Aug-02 00:14 UTC.
Position N 57°45' E 010°24'.

Length 157 m; draft 7.1 m.

Type: Ship (hazmat cat A). MMSI: 215013000.

Date/timePositionNaut miles runAvg speedWind from/ knotsBaromVisibWave heightAir tempDewpointWater temp
2015-Aug-01 23:33N 57°45' E 010°24'1010.0
2015-Aug-01 22:34N 57°47' E 010°43'10 9.6
2015-Aug-01 21:34N 57°43' E 010°59'1010.3
2015-Aug-01 20:33N 57°35' E 011°12'1110.6
2015-Aug-01 19:33N 57°28' E 011°26'1110.6
2015-Aug-01 18:33N 57°18' E 011°33'1110.6
2015-Aug-01 17:34N 57°08' E 011°39'1110.7
2015-Aug-01 16:33N 56°58' E 011°47'1110.6
2015-Aug-01 15:33N 56°48' E 011°53'1010.5
2015-Aug-01 14:33N 56°38' E 011°58'1210.5
2015-Aug-01 13:25N 56°27' E 012°03'910.6
2015-Aug-01 12:33N 56°18' E 012°07'10 9.8
2015-Aug-01 11:33N 56°12' E 012°21'1212.2
2015-Aug-01 10:34N 56°04' E 012°38'1413.9
2015-Aug-01 09:34N 55°51' E 012°43'1312.6
2015-Aug-01 08:33N 55°38' E 012°42'9 9.5
2015-Aug-01 07:33N 55°28' E 012°43'1211.5
2015-Aug-01 06:33N 55°17' E 012°46'1313.2
2015-Aug-01 05:33N 55°15' E 013°09'1312.9
2015-Aug-01 04:33N 55°15' E 013°32'1313.1
2015-Aug-01 03:33N 55°15' E 013°55'1312.6
2015-Aug-01 02:33N 55°14' E 014°17'1313.0
2015-Aug-01 01:33N 55°24' E 014°32'1312.9
2015-Aug-01 00:33N 55°32' E 014°51'1312.9
2015-Jul-31 23:33N 55°38' E 015°10'10912.1
2015-Jul-31 14:33N 56°60' E 017°19'1312.7
2015-Jul-31 13:33N 57°12' E 017°27'1313.0
2015-Jul-31 12:33N 57°24' E 017°36'  
2015-Jul-26 10:33N 57°17' E 017°40'1412.4
2015-Jul-26 09:27N 57°04' E 017°31'11813.3
2015-Jul-26 00:33N 55°34' E 015°13'1514.8
2015-Jul-25 23:33N 55°27' E 014°50'1414.4
2015-Jul-25 22:34N 55°18' E 014°30'1413.9
2015-Jul-25 21:33N 55°10' E 014°10'1514.8
2015-Jul-25 20:33N 55°11' E 013°44'1514.7
2015-Jul-25 19:33N 55°12' E 013°18'1514.6
2015-Jul-25 18:33N 55°15' E 012°53'1211.9
2015-Jul-25 17:33N 55°24' E 012°39'1212.4
2015-Jul-25 16:33N 55°36' E 012°42'1212.3
2015-Jul-25 15:34N 55°48' E 012°42'1414.2
2015-Jul-25 14:33N 56°03' E 012°39'1313.1
2015-Jul-25 13:34N 56°11' E 012°21'1413.8
2015-Jul-25 12:33N 56°20' E 012°02'1514.7
2015-Jul-25 11:34N 56°34' E 011°56'1514.8
2015-Jul-25 10:33N 56°48' E 011°49'1515.2
2015-Jul-25 09:33N 57°03' E 011°40'1514.9
2015-Jul-25 08:33N 57°17' E 011°31'1414.4
2015-Jul-25 07:34N 57°30' E 011°19'1414.4
2015-Jul-25 06:33N 57°40' E 010°60'1414.0
2015-Jul-25 05:33N 57°47' E 010°38'1514.6
2015-Jul-25 04:34N 57°44' E 010°11'1514.7
2015-Jul-25 03:33N 57°39' E 009°45'1414.4
2015-Jul-25 02:33N 57°35' E 009°19'1414.6
2015-Jul-25 01:33N 57°27' E 008°56'2014.8
2015-Jul-25 00:14N 57°15' E 008°27'11214.6
2015-Jul-24 16:34N 55°40' E 006°41'1514.6
2015-Jul-24 15:33N 55°27' E 006°29'2519.6
2015-Jul-24 14:17N 55°06' E 006°07'5413.6
2015-Jul-24 10:17N 54°19' E 005°19'1216.2
2015-Jul-24 09:33N 54°08' E 005°11'1616.2
2015-Jul-24 08:33N 53°53' E 004°59'1616.0
2015-Jul-24 07:34N 53°38' E 004°50'1615.9
2015-Jul-24 06:33N 53°23' E 004°40'1615.7
2015-Jul-24 05:33N 53°09' E 004°29'1515.3
2015-Jul-24 04:34N 52°56' E 004°17'1514.9
2015-Jul-24 03:34N 52°44' E 004°03'1515.1
2015-Jul-24 02:33N 52°35' E 003°42'3614.9
2015-Jul-24 00:09N 52°01' E 003°24'915.3
2015-Jul-23 23:33N 51°52' E 003°20'1615.7
2015-Jul-23 22:33N 51°39' E 003°07'1515.4
2015-Jul-23 21:33N 51°27' E 002°50'5 5.2
2015-Jul-23 20:34N 51°22' E 002°53'1111.3
2015-Jul-23 19:33N 51°21' E 003°11'0 0.0
2015-Jul-23 18:32N 51°21' E 003°11'0 0.0
2015-Jul-23 17:32N 51°21' E 003°11'0 0.0
2015-Jul-23 16:32N 51°21' E 003°11'0 0.0
2015-Jul-23 15:32N 51°21' E 003°11'0 0.0
2015-Jul-23 14:32N 51°21' E 003°11'0 0.0
2015-Jul-23 13:32N 51°21' E 003°11'0 0.0
2015-Jul-23 12:32N 51°21' E 003°11'0 0.0
2015-Jul-23 11:32N 51°21' E 003°11'0 0.0
2015-Jul-23 10:32N 51°21' E 003°11'0 0.0
2015-Jul-23 09:32N 51°21' E 003°11'0 0.0
2015-Jul-23 08:32N 51°21' E 003°11'0 0.0
2015-Jul-23 07:32N 51°21' E 003°11'0 0.0
2015-Jul-23 06:32N 51°21' E 003°11'0 0.0
2015-Jul-23 05:32N 51°21' E 003°11'0 0.0
2015-Jul-23 04:32N 51°21' E 003°11'0 0.0
2015-Jul-23 03:32N 51°21' E 003°11'0 0.0
2015-Jul-23 02:32N 51°21' E 003°11'0 0.0
2015-Jul-23 01:32N 51°21' E 003°11'0 0.0
2015-Jul-23 00:32N 51°21' E 003°11'  
Track history (hours):
 
Tides and Currents Weather Stations Pressure Air Temp Water Temp Dewpoint Dewpoint Depression Visibility Wind Speed Wind Dir Waves Ship Positions

Baltica

Last reported at 2015-Aug-01 23:33 UTC. Time now 2015-Aug-02 00:14 UTC.
Position N 57°45' E 010°24'.

Length 157 m; draft 7.1 m.

Type: Ship (hazmat cat A). MMSI: 215013000.

Date/timePositionNaut miles runAvg speedWind from/ knotsBaromVisibWave heightAir tempDewpointWater temp
2015-Aug-01 23:33N 57°45' E 010°24'1010.0
2015-Aug-01 22:34N 57°47' E 010°43'10 9.6
2015-Aug-01 21:34N 57°43' E 010°59'1010.3
2015-Aug-01 20:33N 57°35' E 011°12'1110.6
2015-Aug-01 19:33N 57°28' E 011°26'1110.6
2015-Aug-01 18:33N 57°18' E 011°33'1110.6
2015-Aug-01 17:34N 57°08' E 011°39'1110.7
2015-Aug-01 16:33N 56°58' E 011°47'1110.6
2015-Aug-01 15:33N 56°48' E 011°53'1010.5
2015-Aug-01 14:33N 56°38' E 011°58'1210.5
2015-Aug-01 13:25N 56°27' E 012°03'910.6
2015-Aug-01 12:33N 56°18' E 012°07'10 9.8
2015-Aug-01 11:33N 56°12' E 012°21'1212.2
2015-Aug-01 10:34N 56°04' E 012°38'1413.9
2015-Aug-01 09:34N 55°51' E 012°43'1312.6
2015-Aug-01 08:33N 55°38' E 012°42'9 9.5
2015-Aug-01 07:33N 55°28' E 012°43'1211.5
2015-Aug-01 06:33N 55°17' E 012°46'1313.2
2015-Aug-01 05:33N 55°15' E 013°09'1312.9
2015-Aug-01 04:33N 55°15' E 013°32'1313.1
2015-Aug-01 03:33N 55°15' E 013°55'1312.6
2015-Aug-01 02:33N 55°14' E 014°17'1313.0
2015-Aug-01 01:33N 55°24' E 014°32'1312.9
2015-Aug-01 00:33N 55°32' E 014°51'1312.9
2015-Jul-31 23:33N 55°38' E 015°10'10912.1
2015-Jul-31 14:33N 56°60' E 017°19'1312.7
2015-Jul-31 13:33N 57°12' E 017°27'1313.0
2015-Jul-31 12:33N 57°24' E 017°36'  
2015-Jul-26 10:33N 57°17' E 017°40'1412.4
2015-Jul-26 09:27N 57°04' E 017°31'11813.3
2015-Jul-26 00:33N 55°34' E 015°13'1514.8
2015-Jul-25 23:33N 55°27' E 014°50'1414.4
2015-Jul-25 22:34N 55°18' E 014°30'1413.9
2015-Jul-25 21:33N 55°10' E 014°10'1514.8
2015-Jul-25 20:33N 55°11' E 013°44'1514.7
2015-Jul-25 19:33N 55°12' E 013°18'1514.6
2015-Jul-25 18:33N 55°15' E 012°53'1211.9
2015-Jul-25 17:33N 55°24' E 012°39'1212.4
2015-Jul-25 16:33N 55°36' E 012°42'1212.3
2015-Jul-25 15:34N 55°48' E 012°42'1414.2
2015-Jul-25 14:33N 56°03' E 012°39'1313.1
2015-Jul-25 13:34N 56°11' E 012°21'1413.8
2015-Jul-25 12:33N 56°20' E 012°02'1514.7
2015-Jul-25 11:34N 56°34' E 011°56'1514.8
2015-Jul-25 10:33N 56°48' E 011°49'1515.2
2015-Jul-25 09:33N 57°03' E 011°40'1514.9
2015-Jul-25 08:33N 57°17' E 011°31'1414.4
2015-Jul-25 07:34N 57°30' E 011°19'1414.4
2015-Jul-25 06:33N 57°40' E 010°60'1414.0
2015-Jul-25 05:33N 57°47' E 010°38'1514.6
2015-Jul-25 04:34N 57°44' E 010°11'1514.7
2015-Jul-25 03:33N 57°39' E 009°45'1414.4
2015-Jul-25 02:33N 57°35' E 009°19'1414.6
2015-Jul-25 01:33N 57°27' E 008°56'2014.8
2015-Jul-25 00:14N 57°15' E 008°27'11214.6
2015-Jul-24 16:34N 55°40' E 006°41'1514.6
2015-Jul-24 15:33N 55°27' E 006°29'2519.6
2015-Jul-24 14:17N 55°06' E 006°07'5413.6
2015-Jul-24 10:17N 54°19' E 005°19'1216.2
2015-Jul-24 09:33N 54°08' E 005°11'1616.2
2015-Jul-24 08:33N 53°53' E 004°59'1616.0
2015-Jul-24 07:34N 53°38' E 004°50'1615.9
2015-Jul-24 06:33N 53°23' E 004°40'1615.7
2015-Jul-24 05:33N 53°09' E 004°29'1515.3
2015-Jul-24 04:34N 52°56' E 004°17'1514.9
2015-Jul-24 03:34N 52°44' E 004°03'1515.1
2015-Jul-24 02:33N 52°35' E 003°42'3614.9
2015-Jul-24 00:09N 52°01' E 003°24'915.3
2015-Jul-23 23:33N 51°52' E 003°20'1615.7
2015-Jul-23 22:33N 51°39' E 003°07'1515.4
2015-Jul-23 21:33N 51°27' E 002°50'5 5.2
2015-Jul-23 20:34N 51°22' E 002°53'1111.3
2015-Jul-23 19:33N 51°21' E 003°11'0 0.0
2015-Jul-23 18:32N 51°21' E 003°11'0 0.0
2015-Jul-23 17:32N 51°21' E 003°11'0 0.0
2015-Jul-23 16:32N 51°21' E 003°11'0 0.0
2015-Jul-23 15:32N 51°21' E 003°11'0 0.0
2015-Jul-23 14:32N 51°21' E 003°11'0 0.0
2015-Jul-23 13:32N 51°21' E 003°11'0 0.0
2015-Jul-23 12:32N 51°21' E 003°11'0 0.0
2015-Jul-23 11:32N 51°21' E 003°11'0 0.0
2015-Jul-23 10:32N 51°21' E 003°11'0 0.0
2015-Jul-23 09:32N 51°21' E 003°11'0 0.0
2015-Jul-23 08:32N 51°21' E 003°11'0 0.0
2015-Jul-23 07:32N 51°21' E 003°11'0 0.0
2015-Jul-23 06:32N 51°21' E 003°11'0 0.0
2015-Jul-23 05:32N 51°21' E 003°11'0 0.0
2015-Jul-23 04:32N 51°21' E 003°11'0 0.0
2015-Jul-23 03:32N 51°21' E 003°11'0 0.0
2015-Jul-23 02:32N 51°21' E 003°11'0 0.0
2015-Jul-23 01:32N 51°21' E 003°11'0 0.0
2015-Jul-23 00:32N 51°21' E 003°11'  

Dump ship's entire track history